Terminal Aerodrome Forecast
Issued by NWS Jacksonville, FL

Home | Current Version | Previous Version | Text Only | Print | Product List | Glossary On
Versions: 1 2 3 4 5 6 7 8 9 10 11 12 13 14 15 16 17 18 19 20 21
989
FTUS42 KJAX 141132
TAFJAX
TAF
KJAX 141132Z 1412/1512 VRB03KT P6SM SKC
     FM141500 07012G18KT P6SM SKC
     FM142000 07012KT P6SM SCT025 BKN035
     FM150300 VRB03KT P6SM SCT020 OVC030=

USA.gov is the U.S. government's official web portal to all federal, state and local government web resources and services.